createdAt,value
2023-03-16T00:00:56.646Z,9.80
2023-03-16T00:03:25.758Z,12.07
2023-03-16T00:06:07.627Z,10.32
2023-03-16T00:08:36.850Z,9.73
2023-03-16T00:11:04.574Z,12.15
2023-03-16T00:13:32.536Z,7.57
2023-03-16T00:16:02.740Z,7.20
2023-03-16T00:18:38.711Z,10.07
2023-03-16T00:21:07.259Z,7.90
2023-03-16T00:23:36.564Z,12.70
2023-03-16T00:26:06.817Z,9.18
2023-03-16T00:28:36.478Z,12.30
2023-03-16T00:31:04.978Z,9.93
2023-03-16T00:33:34.933Z,7.75
2023-03-16T00:36:05.300Z,9.07
2023-03-16T00:41:03.926Z,10.43
2023-03-16T00:43:32.288Z,8.02
2023-03-16T00:46:01.239Z,9.88
2023-03-16T00:48:28.923Z,8.35
2023-03-16T00:50:57.946Z,12.10
2023-03-16T00:53:26.301Z,10.15
2023-03-16T00:55:54.070Z,7.78
2023-03-16T00:58:23.246Z,9.30
2023-03-16T01:00:51.297Z,9.73
2023-03-16T01:03:19.076Z,9.13
2023-03-16T01:05:46.837Z,10.75
2023-03-16T01:08:16.199Z,10.98
2023-03-16T01:10:45.188Z,10.88
2023-03-16T01:13:13.013Z,13.65
2023-03-16T01:15:41.097Z,10.57
2023-03-16T01:18:08.742Z,10.07
2023-03-16T01:20:36.569Z,13.52
2023-03-16T01:23:04.407Z,12.82
2023-03-16T01:25:33.445Z,10.98
2023-03-16T01:28:01.569Z,14.00
2023-03-16T01:30:29.877Z,9.38
2023-03-16T01:32:58.360Z,13.63
2023-03-16T01:35:26.175Z,12.45
2023-03-16T01:37:53.876Z,11.88
2023-03-16T01:40:22.041Z,9.77
2023-03-16T01:43:01.721Z,12.30
2023-03-16T01:46:03.849Z,12.68
2023-03-16T01:48:37.180Z,12.02
2023-03-16T01:51:08.390Z,10.23
2023-03-16T01:53:37.058Z,10.80
2023-03-16T01:56:10.926Z,17.77
2023-03-16T01:58:41.072Z,9.38
2023-03-16T02:01:09.097Z,11.93
2023-03-16T02:03:36.867Z,10.70
2023-03-16T02:06:10.300Z,12.60
2023-03-16T02:08:39.949Z,13.20
2023-03-16T02:11:09.658Z,7.45
2023-03-16T02:13:37.679Z,7.38
2023-03-16T02:16:09.490Z,12.68
2023-03-16T02:18:37.718Z,10.63
2023-03-16T02:21:13.583Z,9.98
2023-03-16T02:23:43.530Z,9.82
2023-03-16T02:26:22.853Z,10.88
2023-03-16T02:29:01.559Z,13.18
2023-03-16T02:31:30.624Z,11.00
2023-03-16T02:33:59.733Z,13.32
2023-03-16T02:36:28.294Z,6.57
2023-03-16T02:38:55.952Z,10.65
2023-03-16T02:41:23.598Z,8.45
2023-03-16T02:43:55.065Z,10.27
2023-03-16T02:46:26.558Z,10.82
2023-03-16T02:49:02.910Z,10.43
2023-03-16T02:51:30.794Z,7.85
2023-03-16T02:53:58.461Z,8.30
2023-03-16T02:56:26.545Z,8.95
2023-03-16T02:58:54.761Z,9.88
2023-03-16T03:01:22.405Z,8.70
2023-03-16T03:03:50.156Z,7.95
2023-03-16T03:06:19.219Z,7.65
2023-03-16T03:08:46.976Z,10.00
2023-03-16T03:11:14.574Z,11.20
2023-03-16T03:13:44.480Z,9.10
2023-03-16T03:16:12.623Z,10.75
2023-03-16T03:18:41.044Z,9.27
2023-03-16T03:21:08.864Z,9.55
2023-03-16T03:23:37.959Z,8.57
2023-03-16T03:26:06.511Z,8.35
2023-03-16T03:28:34.392Z,18.42
2023-03-16T03:31:02.504Z,12.35
2023-03-16T03:33:30.152Z,13.43
2023-03-16T03:35:59.111Z,8.30
2023-03-16T03:38:27.420Z,9.23
2023-03-16T03:40:59.518Z,10.82
2023-03-16T03:43:27.421Z,13.32
2023-03-16T03:45:57.918Z,10.18
2023-03-16T03:48:25.706Z,11.20
2023-03-16T03:50:53.571Z,7.90
2023-03-16T03:53:21.850Z,10.07
2023-03-16T03:55:49.852Z,8.05
2023-03-16T03:58:18.918Z,9.82
2023-03-16T04:00:46.785Z,7.80
2023-03-16T04:03:14.694Z,12.50
2023-03-16T04:05:42.523Z,13.43
2023-03-16T04:08:10.202Z,8.73
2023-03-16T04:10:37.888Z,9.43
2023-03-16T04:13:05.549Z,7.13
2023-03-16T04:15:38.308Z,10.48
2023-03-16T04:18:06.235Z,9.52
2023-03-16T04:20:34.008Z,13.43
2023-03-16T04:23:01.770Z,6.40
2023-03-16T04:25:30.495Z,8.35
2023-03-16T04:27:58.611Z,13.45
2023-03-16T04:30:26.654Z,9.65
2023-03-16T04:32:56.193Z,8.35
2023-03-16T04:35:23.921Z,10.53
2023-03-16T04:37:51.509Z,9.40
2023-03-16T04:40:19.408Z,12.30
2023-03-16T04:42:48.320Z,7.22
2023-03-16T04:45:18.483Z,7.95
2023-03-16T04:47:46.347Z,9.20
2023-03-16T04:50:15.422Z,12.82
2023-03-16T04:52:43.074Z,10.55
2023-03-16T04:55:10.910Z,10.57
2023-03-16T04:57:38.570Z,8.57
2023-03-16T05:00:11.683Z,9.75
2023-03-16T05:02:39.438Z,9.70
2023-03-16T05:05:07.996Z,10.35
2023-03-16T05:07:37.165Z,6.30
2023-03-16T05:10:05.272Z,7.15
2023-03-16T05:12:32.889Z,10.82
2023-03-16T05:15:00.654Z,13.15
2023-03-16T05:17:29.097Z,8.15
2023-03-16T05:19:56.778Z,8.93
2023-03-16T05:22:24.569Z,8.07
2023-03-16T05:24:53.608Z,11.70
2023-03-16T05:27:21.614Z,10.55
2023-03-16T05:29:49.315Z,9.88
2023-03-16T05:32:17.645Z,9.82
2023-03-16T05:34:45.326Z,12.10
2023-03-16T05:37:13.142Z,8.63
2023-03-16T05:39:40.793Z,13.52
2023-03-16T05:42:10.139Z,18.45
2023-03-16T05:44:38.101Z,16.40
2023-03-16T05:47:06.011Z,10.13
2023-03-16T05:49:33.904Z,16.30
2023-03-16T05:52:01.581Z,14.65
2023-03-16T05:54:29.328Z,14.05
2023-03-16T05:56:56.990Z,10.98
2023-03-16T05:59:26.103Z,13.25
2023-03-16T06:01:54.054Z,12.63
2023-03-16T06:04:21.842Z,12.20
2023-03-16T06:06:49.666Z,12.25
2023-03-16T06:09:17.292Z,16.02
2023-03-16T06:11:44.961Z,9.55
2023-03-16T06:14:12.614Z,15.93
2023-03-16T06:16:41.653Z,14.68
2023-03-16T06:19:09.333Z,13.32
2023-03-16T06:21:37.123Z,15.50
2023-03-16T06:24:05.094Z,15.85
2023-03-16T06:26:32.776Z,13.80
2023-03-16T06:29:00.441Z,10.60
2023-03-16T06:31:28.190Z,13.98
2023-03-16T06:33:57.304Z,14.23
2023-03-16T06:36:24.991Z,14.70
2023-03-16T06:38:52.713Z,15.13
2023-03-16T06:41:21.145Z,12.93
2023-03-16T06:43:48.943Z,17.75
2023-03-16T06:46:16.780Z,14.18
2023-03-16T06:48:44.491Z,16.35
2023-03-16T06:51:15.052Z,14.10
2023-03-16T06:53:44.195Z,13.18
2023-03-16T06:56:11.852Z,16.65
2023-03-16T06:58:39.545Z,10.35
2023-03-16T07:01:07.485Z,11.77
2023-03-16T07:03:35.356Z,10.90
2023-03-16T07:06:03.095Z,9.77
2023-03-16T07:08:32.135Z,9.15
2023-03-16T07:10:59.811Z,20.13
2023-03-16T07:13:27.501Z,20.52
2023-03-16T07:15:55.237Z,10.50
2023-03-16T07:18:25.812Z,12.02
2023-03-16T07:20:54.513Z,10.88
2023-03-16T07:23:22.499Z,9.90
2023-03-16T07:25:52.029Z,14.48
2023-03-16T07:28:19.966Z,12.00
2023-03-16T07:31:03.018Z,11.57
2023-03-16T07:33:32.133Z,10.80
2023-03-16T07:35:59.949Z,12.85
2023-03-16T07:38:27.649Z,10.55
2023-03-16T07:40:56.695Z,11.20
2023-03-16T07:43:24.528Z,8.43
2023-03-16T07:45:53.368Z,11.75
2023-03-16T07:48:21.601Z,8.85
2023-03-16T07:50:49.468Z,13.02
2023-03-16T07:53:17.919Z,10.30
2023-03-16T07:55:45.939Z,10.25
2023-03-16T07:58:14.874Z,10.57
2023-03-16T08:00:43.429Z,9.48
2023-03-16T08:03:11.713Z,22.80
2023-03-16T08:05:39.461Z,12.23
2023-03-16T08:08:09.601Z,11.75
2023-03-16T08:10:37.341Z,7.10
2023-03-16T08:13:05.676Z,9.05
2023-03-16T08:15:35.032Z,13.75
2023-03-16T08:18:03.372Z,10.80
2023-03-16T08:20:32.013Z,9.52
2023-03-16T08:23:00.068Z,10.18
2023-03-16T08:25:27.884Z,9.07
2023-03-16T08:27:55.766Z,8.73
2023-03-16T08:30:23.744Z,7.55
2023-03-16T08:32:52.846Z,8.80
2023-03-16T08:35:20.602Z,12.18
2023-03-16T08:37:49.507Z,7.65
2023-03-16T08:40:17.813Z,8.95
2023-03-16T08:42:45.713Z,8.18
2023-03-16T08:45:14.272Z,12.93
2023-03-16T08:47:42.790Z,9.25
2023-03-16T08:50:13.381Z,8.00
2023-03-16T08:52:42.709Z,10.00
2023-03-16T08:55:11.412Z,10.38
2023-03-16T08:57:39.748Z,6.68
2023-03-16T09:00:14.581Z,9.20
2023-03-16T09:02:43.264Z,8.68
2023-03-16T09:05:15.867Z,5.50
2023-03-16T09:07:43.713Z,7.40
2023-03-16T09:10:15.350Z,7.18
2023-03-16T09:12:43.796Z,5.85
2023-03-16T09:15:13.704Z,9.23
2023-03-16T09:17:43.013Z,6.47
2023-03-16T09:20:22.301Z,11.80
2023-03-16T09:22:54.480Z,7.97
2023-03-16T09:25:22.242Z,10.55
2023-03-16T09:27:50.669Z,7.10
2023-03-16T09:30:18.897Z,6.53
2023-03-16T09:32:48.620Z,8.23
2023-03-16T09:35:18.056Z,15.32
2023-03-16T09:38:04.805Z,6.95
2023-03-16T09:40:33.966Z,8.38
2023-03-16T09:43:17.421Z,8.98
2023-03-16T09:45:54.061Z,9.45
2023-03-16T09:48:24.588Z,4.53
2023-03-16T09:50:56.639Z,14.73
2023-03-16T09:53:29.636Z,5.43
2023-03-16T09:56:03.274Z,6.22
2023-03-16T09:58:32.148Z,6.78
2023-03-16T10:01:09.906Z,6.65
2023-03-16T10:03:59.082Z,4.85
2023-03-16T10:06:28.891Z,6.05
2023-03-16T10:09:07.421Z,8.20
2023-03-16T10:11:39.197Z,4.82
2023-03-16T10:14:17.806Z,5.07
2023-03-16T10:16:50.486Z,4.13
2023-03-16T10:19:21.511Z,7.25
2023-03-16T10:21:53.194Z,5.68
2023-03-16T10:24:42.195Z,3.53
2023-03-16T10:27:20.488Z,5.75
2023-03-16T10:29:48.583Z,3.45
2023-03-16T10:32:18.874Z,4.30
2023-03-16T10:34:50.184Z,5.22
2023-03-16T10:37:20.276Z,7.47
2023-03-16T10:39:49.338Z,31.73
2023-03-16T10:42:19.930Z,5.43
2023-03-16T10:47:21.087Z,6.80
2023-03-16T10:49:51.183Z,6.32
2023-03-16T10:52:25.812Z,4.47
2023-03-16T10:54:57.602Z,5.47
2023-03-16T10:57:28.578Z,5.13
2023-03-16T11:00:00.372Z,5.70
2023-03-16T11:02:34.049Z,4.63
2023-03-16T11:05:13.185Z,5.32
2023-03-16T11:07:49.836Z,9.45
2023-03-16T11:10:31.718Z,6.03
2023-03-16T11:13:08.655Z,3.97
2023-03-16T11:15:45.539Z,5.22
2023-03-16T11:18:30.052Z,7.30
2023-03-16T11:20:58.695Z,6.78
2023-03-16T11:23:33.015Z,5.40
2023-03-16T11:26:05.683Z,3.63
2023-03-16T11:28:39.187Z,3.95
2023-03-16T11:31:21.109Z,5.82
2023-03-16T11:33:50.027Z,5.25
2023-03-16T11:36:39.163Z,4.53
2023-03-16T11:39:18.101Z,7.50
2023-03-16T11:41:59.512Z,6.75
2023-03-16T11:44:37.881Z,5.13
2023-03-16T11:47:17.642Z,4.00
2023-03-16T11:49:56.165Z,2.43
2023-03-16T11:52:36.888Z,6.82
2023-03-16T11:55:18.954Z,7.90
2023-03-16T11:57:58.512Z,3.45
2023-03-16T12:00:37.047Z,4.20
2023-03-16T12:03:33.730Z,5.90
2023-03-16T12:06:16.916Z,7.32
2023-03-16T12:09:15.664Z,7.32
2023-03-16T12:11:50.357Z,4.32
2023-03-16T12:14:24.416Z,2.97
2023-03-16T12:16:57.378Z,7.57
2023-03-16T12:19:30.738Z,4.70
2023-03-16T12:22:06.752Z,3.35
2023-03-16T12:24:44.488Z,3.70
2023-03-16T12:27:17.556Z,5.93
2023-03-16T12:29:58.336Z,4.25
2023-03-16T12:32:36.466Z,6.32
2023-03-16T12:35:18.293Z,5.85
2023-03-16T12:38:00.246Z,3.25
2023-03-16T12:40:39.488Z,7.22
2023-03-16T12:43:20.018Z,3.53
2023-03-16T12:45:56.188Z,2.47
2023-03-16T12:48:29.874Z,2.83
2023-03-16T12:51:00.813Z,3.72
2023-03-16T12:53:39.146Z,3.83
2023-03-16T12:56:09.962Z,3.13
2023-03-16T12:58:42.524Z,3.83
2023-03-16T13:01:13.120Z,4.10
2023-03-16T13:06:19.147Z,4.47
2023-03-16T13:08:52.385Z,4.45
2023-03-16T13:11:20.276Z,2.83
2023-03-16T13:14:07.178Z,5.88
2023-03-16T13:16:37.466Z,2.42
2023-03-16T13:19:18.798Z,6.88
2023-03-16T13:21:46.990Z,5.93
2023-03-16T13:24:28.458Z,6.57
2023-03-16T13:27:02.734Z,10.07
2023-03-16T13:29:33.908Z,6.28
2023-03-16T13:32:03.693Z,6.22
2023-03-16T13:34:34.516Z,5.43
2023-03-16T13:37:02.479Z,4.00
2023-03-16T13:39:32.275Z,3.17
2023-03-16T13:42:04.697Z,4.80
2023-03-16T13:44:34.780Z,4.82
2023-03-16T13:47:07.362Z,2.63
2023-03-16T13:49:35.336Z,4.20
2023-03-16T13:52:05.835Z,4.68
2023-03-16T13:54:33.539Z,3.85
2023-03-16T13:57:07.120Z,4.28
2023-03-16T13:59:36.238Z,4.88
2023-03-16T14:02:03.960Z,7.93
2023-03-16T14:04:33.929Z,2.65
2023-03-16T14:07:03.998Z,3.60
2023-03-16T14:09:34.403Z,8.88
2023-03-16T14:12:03.544Z,3.45
2023-03-16T14:14:41.044Z,1.58
2023-03-16T14:17:13.448Z,3.92
2023-03-16T14:19:45.706Z,3.60
2023-03-16T14:22:19.302Z,3.70
2023-03-16T14:24:53.678Z,5.25
2023-03-16T14:27:27.284Z,4.47
2023-03-16T14:30:01.541Z,4.72
2023-03-16T14:32:31.498Z,3.25
2023-03-16T14:35:13.850Z,4.35
2023-03-16T14:37:42.151Z,4.82
2023-03-16T14:40:24.223Z,2.45
2023-03-16T14:42:53.171Z,1.98
2023-03-16T14:45:22.691Z,3.05
2023-03-16T14:47:53.715Z,3.22
2023-03-16T14:50:25.131Z,3.47
2023-03-16T14:52:55.849Z,3.25
2023-03-16T14:55:24.808Z,1.63
2023-03-16T14:57:53.164Z,2.10
2023-03-16T15:00:23.285Z,12.43
2023-03-16T15:03:00.188Z,2.45
2023-03-16T15:05:35.996Z,1.33
2023-03-16T15:08:06.432Z,2.40
2023-03-16T15:10:36.574Z,3.35
2023-03-16T15:13:13.298Z,3.92
2023-03-16T15:15:42.897Z,4.40
2023-03-16T15:18:11.236Z,2.80
2023-03-16T15:20:41.769Z,3.90
2023-03-16T15:25:41.286Z,2.83
2023-03-16T15:28:15.748Z,2.67
2023-03-16T15:30:46.898Z,4.72
2023-03-16T15:33:14.995Z,2.78
2023-03-16T15:35:43.277Z,2.30
2023-03-16T15:38:15.369Z,1.63
2023-03-16T15:40:45.434Z,0.90
2023-03-16T15:43:14.414Z,2.03
2023-03-16T15:45:43.167Z,1.42
2023-03-16T15:48:13.086Z,3.28
2023-03-16T15:50:43.988Z,1.52
2023-03-16T15:53:29.878Z,2.80
2023-03-16T15:56:02.921Z,2.15
2023-03-16T15:58:32.410Z,3.13
2023-03-16T16:01:01.740Z,3.78
2023-03-16T16:03:30.992Z,3.10
2023-03-16T16:05:58.953Z,3.42
2023-03-16T16:08:26.639Z,2.17
2023-03-16T16:10:54.620Z,1.42
2023-03-16T16:13:37.483Z,1.70
2023-03-16T16:16:13.265Z,1.98
2023-03-16T16:18:42.578Z,1.05
2023-03-16T16:21:16.891Z,2.70
2023-03-16T16:23:44.836Z,2.78
2023-03-16T16:26:26.294Z,1.60
2023-03-16T16:28:55.771Z,0.98
2023-03-16T16:31:24.389Z,2.22
2023-03-16T16:33:53.862Z,1.63
2023-03-16T16:36:21.982Z,2.25
2023-03-16T16:38:50.850Z,2.47
2023-03-16T16:41:27.631Z,1.90
2023-03-16T16:43:56.518Z,2.38
2023-03-16T16:46:27.200Z,2.17
2023-03-16T16:49:01.644Z,2.13
2023-03-16T16:51:30.732Z,4.57
2023-03-16T16:54:00.107Z,4.43
2023-03-16T16:56:30.618Z,1.70
2023-03-16T16:59:00.420Z,3.22
2023-03-16T17:01:30.416Z,1.65
2023-03-16T17:03:59.627Z,3.72
2023-03-16T17:06:27.809Z,2.78
2023-03-16T17:08:56.039Z,3.60
2023-03-16T17:11:26.962Z,2.90
2023-03-16T17:13:56.909Z,3.63
2023-03-16T17:16:26.571Z,3.50
2023-03-16T17:18:55.197Z,3.03
2023-03-16T17:21:26.612Z,4.05
2023-03-16T17:23:55.053Z,3.40
2023-03-16T17:26:25.174Z,3.90
2023-03-16T17:28:57.646Z,2.70
2023-03-16T17:31:27.652Z,4.10
2023-03-16T17:33:56.954Z,3.15
2023-03-16T17:36:26.265Z,3.40
2023-03-16T17:38:53.911Z,2.75
2023-03-16T17:41:24.411Z,2.45
2023-03-16T17:43:54.399Z,6.15
2023-03-16T17:46:25.184Z,6.85
2023-03-16T17:48:54.524Z,6.32
2023-03-16T17:51:23.014Z,3.78
2023-03-16T17:53:52.905Z,8.32
2023-03-16T17:56:24.182Z,4.30
2023-03-16T17:58:56.989Z,2.90
2023-03-16T18:01:29.759Z,4.65
2023-03-16T18:03:58.088Z,5.15
2023-03-16T18:06:27.319Z,6.45
2023-03-16T18:08:56.538Z,5.05
2023-03-16T18:11:32.155Z,3.13
2023-03-16T18:13:59.799Z,3.75
2023-03-16T18:16:28.607Z,4.18
2023-03-16T18:18:59.752Z,5.82
2023-03-16T18:21:28.245Z,3.90
2023-03-16T18:23:57.304Z,5.40
2023-03-16T18:26:25.113Z,4.57
2023-03-16T18:28:53.597Z,6.97
2023-03-16T18:31:23.719Z,6.07
2023-03-16T18:33:53.781Z,3.80
2023-03-16T18:36:27.466Z,5.95
2023-03-16T18:38:58.683Z,5.75
2023-03-16T18:41:27.668Z,5.28
2023-03-16T18:43:57.688Z,3.75
2023-03-16T18:46:27.544Z,5.07
2023-03-16T18:48:57.932Z,8.15
2023-03-16T18:51:26.710Z,5.20
2023-03-16T18:53:54.927Z,7.68
2023-03-16T18:56:27.059Z,4.47
2023-03-16T18:58:56.398Z,8.23
2023-03-16T19:01:26.919Z,5.20
2023-03-16T19:03:56.864Z,3.17
2023-03-16T19:06:29.476Z,4.70
2023-03-16T19:09:01.987Z,6.30
2023-03-16T19:11:31.340Z,3.50
2023-03-16T19:13:59.036Z,3.65
2023-03-16T19:16:27.048Z,5.60
2023-03-16T19:18:54.859Z,5.05
2023-03-16T19:21:23.531Z,5.18
2023-03-16T19:23:57.576Z,5.35
2023-03-16T19:26:25.856Z,3.85
2023-03-16T19:28:55.115Z,3.28
2023-03-16T19:31:26.567Z,6.47
2023-03-16T19:33:56.771Z,5.38
2023-03-16T19:36:26.658Z,5.13
2023-03-16T19:38:54.682Z,5.65
2023-03-16T19:41:27.083Z,5.43
2023-03-16T19:43:58.295Z,4.25
2023-03-16T19:46:27.742Z,5.13
2023-03-16T19:48:55.679Z,5.70
2023-03-16T19:51:25.334Z,4.03
2023-03-16T19:53:53.287Z,5.27
2023-03-16T19:56:24.417Z,4.90
2023-03-16T19:58:54.614Z,5.88
2023-03-16T20:01:30.424Z,5.82
2023-03-16T20:04:00.035Z,4.80
2023-03-16T20:06:28.987Z,8.65
2023-03-16T20:08:56.969Z,5.25
2023-03-16T20:11:29.194Z,4.68
2023-03-16T20:13:58.258Z,3.72
2023-03-16T20:16:29.979Z,4.15
2023-03-16T20:19:00.280Z,4.38
2023-03-16T20:21:29.330Z,7.60
2023-03-16T20:23:57.442Z,6.07
2023-03-16T20:26:29.012Z,4.25
2023-03-16T20:28:56.708Z,5.97
2023-03-16T20:31:29.639Z,6.60
2023-03-16T20:33:57.461Z,3.47
2023-03-16T20:36:26.369Z,6.32
2023-03-16T20:38:54.064Z,4.63
2023-03-16T20:41:27.665Z,5.25
2023-03-16T20:43:56.258Z,4.82
2023-03-16T20:46:27.325Z,3.88
2023-03-16T20:48:57.058Z,4.68
2023-03-16T20:51:24.693Z,4.83
2023-03-16T20:53:52.513Z,4.00
2023-03-16T20:56:21.807Z,8.10
2023-03-16T20:58:51.285Z,5.07
2023-03-16T21:01:21.552Z,4.70
2023-03-16T21:03:52.112Z,7.65
2023-03-16T21:06:24.137Z,4.70
2023-03-16T21:08:53.069Z,4.18
2023-03-16T21:11:24.414Z,4.80
2023-03-16T21:13:53.549Z,6.35
2023-03-16T21:16:22.104Z,5.35
2023-03-16T21:18:49.933Z,3.88
2023-03-16T21:21:19.858Z,5.90
2023-03-16T21:23:49.008Z,4.90
2023-03-16T21:26:20.147Z,6.32
2023-03-16T21:28:54.954Z,5.90
2023-03-16T21:31:22.964Z,5.53
2023-03-16T21:33:53.688Z,5.40
2023-03-16T21:36:23.467Z,5.22
2023-03-16T21:38:52.601Z,4.88
2023-03-16T21:41:20.394Z,5.07
2023-03-16T21:43:49.817Z,2.83
2023-03-16T21:46:19.295Z,5.93
2023-03-16T21:48:49.497Z,5.20
2023-03-16T21:51:19.329Z,7.05
2023-03-16T21:53:49.131Z,6.25
2023-03-16T21:56:20.660Z,5.57
2023-03-16T21:58:48.591Z,5.88
2023-03-16T22:01:25.325Z,5.32
2023-03-16T22:03:55.030Z,4.15
2023-03-16T22:06:24.392Z,3.17
2023-03-16T22:08:52.524Z,5.60
2023-03-16T22:11:23.932Z,5.57
2023-03-16T22:13:52.346Z,5.32
2023-03-16T22:16:23.118Z,8.63
2023-03-16T22:18:53.430Z,4.72
2023-03-16T22:21:28.242Z,8.05
2023-03-16T22:23:57.508Z,6.57
2023-03-16T22:26:27.407Z,5.32
2023-03-16T22:28:56.355Z,3.95
2023-03-16T22:31:30.126Z,4.50
2023-03-16T22:33:57.833Z,7.20
2023-03-16T22:36:26.000Z,6.10
2023-03-16T22:38:59.389Z,8.18
2023-03-16T22:41:30.294Z,19.45
2023-03-16T22:43:59.494Z,7.95
2023-03-16T22:46:28.817Z,4.72
2023-03-16T22:48:56.957Z,4.65
2023-03-16T22:51:29.930Z,5.75
2023-03-16T22:54:00.450Z,4.75
2023-03-16T22:59:01.724Z,13.02
2023-03-16T23:01:33.952Z,7.32
2023-03-16T23:04:01.969Z,7.82
2023-03-16T23:06:32.078Z,5.60
2023-03-16T23:09:00.235Z,6.97
2023-03-16T23:11:31.929Z,6.40
2023-03-16T23:14:00.416Z,4.97
2023-03-16T23:16:31.184Z,6.47
2023-03-16T23:18:59.090Z,6.90
2023-03-16T23:21:27.837Z,6.30
2023-03-16T23:24:03.683Z,6.97
2023-03-16T23:26:33.752Z,8.23
2023-03-16T23:29:01.723Z,6.60
2023-03-16T23:31:30.664Z,8.40
2023-03-16T23:33:58.317Z,5.75
2023-03-16T23:36:27.165Z,6.65
2023-03-16T23:38:54.961Z,7.22
2023-03-16T23:41:24.727Z,8.40
2023-03-16T23:43:54.818Z,7.60
2023-03-16T23:46:25.624Z,6.22
2023-03-16T23:48:54.963Z,6.82
2023-03-16T23:51:25.563Z,7.18
2023-03-16T23:56:21.530Z,7.07
2023-03-16T23:58:49.270Z,7.20
